createdAt,value
2018-11-02T00:01:41.415Z,6.30
2018-11-02T00:04:10.295Z,6.25
2018-11-02T00:06:39.037Z,6.16
2018-11-02T00:09:08.774Z,6.06
2018-11-02T00:11:37.662Z,6.05
2018-11-02T00:14:06.915Z,5.92
2018-11-02T00:16:37.795Z,5.84
2018-11-02T00:19:09.636Z,5.77
2018-11-02T00:21:38.681Z,5.79
2018-11-02T00:24:08.361Z,5.69
2018-11-02T00:26:37.263Z,5.62
2018-11-02T00:29:06.247Z,5.55
2018-11-02T00:31:36.428Z,5.58
2018-11-02T00:34:05.315Z,5.62
2018-11-02T00:36:34.205Z,5.77
2018-11-02T00:39:03.046Z,5.85
2018-11-02T00:41:31.852Z,6.12
2018-11-02T00:44:08.393Z,6.25
2018-11-02T00:46:37.179Z,6.32
2018-11-02T00:49:06.737Z,6.44
2018-11-02T00:51:42.590Z,6.70
2018-11-02T00:54:11.453Z,6.86
2018-11-02T00:56:41.297Z,7.05
2018-11-02T00:59:16.335Z,7.12
2018-11-02T01:01:48.510Z,7.23
2018-11-02T01:04:17.360Z,7.37
2018-11-02T01:06:50.682Z,7.39
2018-11-02T01:09:25.001Z,7.42
2018-11-02T01:12:00.876Z,7.56
2018-11-02T01:14:30.107Z,7.60
2018-11-02T01:16:59.280Z,7.63
2018-11-02T01:19:34.423Z,7.53
2018-11-02T01:22:05.153Z,7.53
2018-11-02T01:24:34.236Z,7.56
2018-11-02T01:27:03.197Z,7.56
2018-11-02T01:29:32.125Z,7.54
2018-11-02T01:32:00.990Z,7.51
2018-11-02T01:34:29.781Z,7.56
2018-11-02T01:36:58.550Z,7.59
2018-11-02T01:39:27.460Z,7.59
2018-11-02T01:41:56.355Z,7.57
2018-11-02T01:44:25.210Z,7.54
2018-11-02T01:46:54.028Z,7.45
2018-11-02T01:49:22.914Z,7.33
2018-11-02T01:51:51.779Z,7.30
2018-11-02T01:54:20.599Z,7.21
2018-11-02T01:56:49.396Z,7.32
2018-11-02T01:59:18.182Z,7.39
2018-11-02T02:01:46.981Z,7.39
2018-11-02T02:04:16.480Z,7.39
2018-11-02T02:06:45.642Z,7.32
2018-11-02T02:09:15.027Z,7.30
2018-11-02T02:11:43.855Z,7.26
2018-11-02T02:14:12.683Z,7.35
2018-11-02T02:16:41.814Z,7.34
2018-11-02T02:19:10.729Z,7.33
2018-11-02T02:21:39.549Z,7.36
2018-11-02T02:24:16.375Z,7.36
2018-11-02T02:26:56.596Z,7.38
2018-11-02T02:29:25.575Z,7.30
2018-11-02T02:31:54.684Z,7.29
2018-11-02T02:34:23.529Z,7.30
2018-11-02T02:36:52.306Z,7.41
2018-11-02T02:39:21.111Z,7.35
2018-11-02T02:41:49.910Z,7.42
2018-11-02T02:44:18.815Z,7.52
2018-11-02T02:46:48.380Z,7.51
2018-11-02T02:49:17.310Z,7.50
2018-11-02T02:51:46.147Z,7.54
2018-11-02T02:54:15.042Z,7.54
2018-11-02T02:56:44.027Z,7.55
2018-11-02T02:59:22.901Z,7.51
2018-11-02T03:04:53.683Z,7.46
2018-11-02T03:07:22.625Z,7.49
2018-11-02T03:09:51.498Z,7.50
2018-11-02T03:12:20.462Z,7.45
2018-11-02T03:14:49.272Z,7.38
2018-11-02T03:17:18.625Z,7.38
2018-11-02T03:19:49.964Z,7.41
2018-11-02T03:22:18.868Z,7.50
2018-11-02T03:24:47.878Z,7.57
2018-11-02T03:27:37.979Z,7.42
2018-11-02T03:30:10.263Z,7.41
2018-11-02T03:32:42.239Z,7.38
2018-11-02T03:35:14.839Z,7.36
2018-11-02T03:37:44.623Z,7.26
2018-11-02T03:40:14.439Z,7.15
2018-11-02T03:42:57.373Z,7.05
2018-11-02T03:45:31.528Z,6.99
2018-11-02T03:48:00.778Z,6.92
2018-11-02T03:50:29.992Z,6.89
2018-11-02T03:53:02.561Z,6.83
2018-11-02T03:55:36.118Z,6.78
2018-11-02T03:58:18.809Z,6.74
2018-11-02T04:00:50.383Z,6.73
2018-11-02T04:03:24.769Z,6.74
2018-11-02T04:05:54.420Z,6.76
2018-11-02T04:08:23.229Z,6.84
2018-11-02T04:10:52.630Z,6.94
2018-11-02T04:13:21.477Z,6.94
2018-11-02T04:15:50.356Z,6.95
2018-11-02T04:18:19.203Z,6.94
2018-11-02T04:20:48.185Z,6.81
2018-11-02T04:23:17.302Z,6.72
2018-11-02T04:25:46.238Z,6.64
2018-11-02T04:28:15.090Z,6.60
2018-11-02T04:30:44.023Z,6.63
2018-11-02T04:33:12.921Z,6.68
2018-11-02T04:35:41.744Z,6.70
2018-11-02T04:38:11.243Z,6.83
2018-11-02T04:40:40.089Z,6.75
2018-11-02T04:43:08.906Z,6.78
2018-11-02T04:45:38.642Z,6.87
2018-11-02T04:48:08.866Z,6.94
2018-11-02T04:50:38.331Z,6.95
2018-11-02T04:53:07.247Z,6.97
2018-11-02T04:55:44.111Z,6.98
2018-11-02T04:58:13.032Z,7.01
2018-11-02T05:00:51.331Z,6.99
2018-11-02T05:03:22.683Z,6.96
2018-11-02T05:05:52.199Z,6.95
2018-11-02T05:08:21.063Z,6.87
2018-11-02T05:10:50.008Z,6.84
2018-11-02T05:13:25.544Z,6.82
2018-11-02T05:15:54.624Z,6.75
2018-11-02T05:18:23.552Z,6.74
2018-11-02T05:20:56.066Z,6.69
2018-11-02T05:23:37.247Z,6.68
2018-11-02T05:26:06.406Z,6.63
2018-11-02T05:28:35.621Z,6.75
2018-11-02T05:31:04.556Z,6.76
2018-11-02T05:33:33.429Z,6.55
2018-11-02T05:36:02.510Z,6.54
2018-11-02T05:38:31.617Z,6.50
2018-11-02T05:41:00.788Z,6.48
2018-11-02T05:43:35.724Z,6.54
2018-11-02T05:46:17.462Z,6.48
2018-11-02T05:48:46.294Z,6.43
2018-11-02T05:51:15.215Z,6.39
2018-11-02T05:53:43.996Z,6.37
2018-11-02T05:56:12.869Z,6.36
2018-11-02T05:58:41.789Z,6.39
2018-11-02T06:01:10.954Z,6.38
2018-11-02T06:03:39.843Z,6.33
2018-11-02T06:06:08.664Z,6.31
2018-11-02T06:08:37.671Z,6.33
2018-11-02T06:11:07.448Z,6.38
2018-11-02T06:13:36.741Z,6.31
2018-11-02T06:16:15.655Z,6.39
2018-11-02T06:18:50.368Z,6.33
2018-11-02T06:21:19.218Z,6.39
2018-11-02T06:23:48.089Z,6.44
2018-11-02T06:26:17.216Z,6.48
2018-11-02T06:28:46.090Z,6.54
2018-11-02T06:31:15.150Z,6.50
2018-11-02T06:33:44.340Z,6.56
2018-11-02T06:36:13.243Z,6.63
2018-11-02T06:38:42.163Z,6.72
2018-11-02T06:41:11.014Z,6.84
2018-11-02T06:43:39.898Z,7.03
2018-11-02T06:46:08.783Z,7.20
2018-11-02T06:48:37.560Z,7.38
2018-11-02T06:51:06.599Z,7.67
2018-11-02T06:53:35.308Z,8.07
2018-11-02T06:56:04.232Z,8.51
2018-11-02T06:58:33.190Z,8.79
2018-11-02T07:01:02.158Z,8.94
2018-11-02T07:03:31.821Z,8.87
2018-11-02T07:06:01.038Z,8.93
2018-11-02T07:08:30.976Z,9.08
2018-11-02T07:10:59.851Z,9.11
2018-11-02T07:13:28.928Z,9.09
2018-11-02T07:15:57.784Z,9.30
2018-11-02T07:18:26.780Z,9.45
2018-11-02T07:20:56.256Z,9.62
2018-11-02T07:23:25.207Z,9.73
2018-11-02T07:25:54.144Z,9.88
2018-11-02T07:28:23.042Z,9.99
2018-11-02T07:30:52.027Z,10.55
2018-11-02T07:33:32.588Z,11.19
2018-11-02T07:36:01.862Z,11.86
2018-11-02T07:38:30.670Z,12.11
2018-11-02T07:40:59.541Z,12.12
2018-11-02T07:43:28.441Z,12.65
2018-11-02T07:45:57.364Z,13.62
2018-11-02T07:48:26.315Z,14.16
2018-11-02T07:50:55.230Z,14.88
2018-11-02T07:53:24.122Z,15.13
2018-11-02T07:55:53.165Z,15.32
2018-11-02T07:58:22.153Z,15.61
2018-11-02T08:00:51.247Z,15.75
2018-11-02T08:03:22.056Z,15.78
2018-11-02T08:05:52.025Z,15.52
2018-11-02T08:08:21.009Z,15.57
2018-11-02T08:10:49.922Z,15.55
2018-11-02T08:13:18.846Z,16.11
2018-11-02T08:15:47.743Z,16.39
2018-11-02T08:18:16.830Z,15.42
2018-11-02T08:20:45.742Z,15.62
2018-11-02T08:23:14.579Z,15.99
2018-11-02T08:25:43.399Z,15.82
2018-11-02T08:28:12.256Z,16.08
2018-11-02T08:30:41.152Z,16.16
2018-11-02T08:33:10.091Z,16.19
2018-11-02T08:35:38.956Z,16.67
2018-11-02T08:38:08.044Z,16.23
2018-11-02T08:40:37.009Z,16.21
2018-11-02T08:43:09.418Z,16.54
2018-11-02T08:45:41.624Z,17.28
2018-11-02T08:48:10.550Z,17.49
2018-11-02T08:53:26.718Z,17.93
2018-11-02T08:55:58.690Z,17.88
2018-11-02T08:58:39.315Z,17.53
2018-11-02T09:01:20.897Z,16.93
2018-11-02T09:03:50.228Z,15.71
2018-11-02T09:06:19.702Z,14.98
2018-11-02T09:08:50.173Z,14.48
2018-11-02T09:11:19.472Z,14.20
2018-11-02T09:13:49.126Z,14.27
2018-11-02T09:16:20.943Z,14.19
2018-11-02T09:18:49.912Z,13.96
2018-11-02T09:21:19.183Z,13.90
2018-11-02T09:23:48.495Z,13.96
2018-11-02T09:26:17.936Z,14.13
2018-11-02T09:29:08.374Z,13.99
2018-11-02T09:31:37.351Z,14.24
2018-11-02T09:34:06.776Z,14.44
2018-11-02T09:36:36.131Z,14.54
2018-11-02T09:39:09.052Z,14.49
2018-11-02T09:41:46.529Z,14.41
2018-11-02T09:44:15.741Z,14.14
2018-11-02T09:46:44.654Z,14.07
2018-11-02T09:49:13.551Z,14.16
2018-11-02T09:51:42.439Z,13.98
2018-11-02T09:54:15.839Z,14.11
2018-11-02T09:56:44.860Z,14.18
2018-11-02T09:59:14.086Z,14.30
2018-11-02T10:01:43.066Z,14.41
2018-11-02T10:04:11.866Z,14.44
2018-11-02T10:06:42.683Z,14.69
2018-11-02T10:09:21.443Z,14.81
2018-11-02T10:11:50.342Z,15.14
2018-11-02T10:14:19.276Z,15.72
2018-11-02T10:16:48.369Z,15.94
2018-11-02T10:19:17.500Z,15.96
2018-11-02T10:22:01.321Z,15.90
2018-11-02T10:24:30.328Z,15.70
2018-11-02T10:26:59.233Z,15.51
2018-11-02T10:29:28.329Z,15.52
2018-11-02T10:31:57.244Z,15.50
2018-11-02T10:34:26.122Z,15.73
2018-11-02T10:36:55.348Z,15.83
2018-11-02T10:39:24.392Z,15.72
2018-11-02T10:44:44.964Z,16.08
2018-11-02T10:47:13.864Z,16.05
2018-11-02T10:49:43.447Z,16.22
2018-11-02T10:52:12.420Z,16.28
2018-11-02T10:54:41.435Z,16.03
2018-11-02T10:57:16.862Z,16.26
2018-11-02T10:59:45.683Z,16.52
2018-11-02T11:02:19.853Z,17.14
2018-11-02T11:04:48.754Z,17.09
2018-11-02T11:07:17.736Z,17.26
2018-11-02T11:09:46.933Z,17.91
2018-11-02T11:12:15.951Z,18.22
2018-11-02T11:14:44.673Z,17.98
2018-11-02T11:17:13.540Z,17.81
2018-11-02T11:19:42.675Z,17.99
2018-11-02T11:22:11.748Z,18.27
2018-11-02T11:24:53.548Z,18.55
2018-11-02T11:27:22.653Z,18.28
2018-11-02T11:29:54.691Z,17.77
2018-11-02T11:32:24.557Z,17.45
2018-11-02T11:34:53.695Z,17.64
2018-11-02T11:37:22.582Z,18.02
2018-11-02T11:39:51.822Z,18.48
2018-11-02T11:42:22.608Z,18.48
2018-11-02T11:44:51.602Z,18.43
2018-11-02T11:47:22.327Z,18.70
2018-11-02T11:49:58.699Z,18.98
2018-11-02T11:52:35.438Z,18.91
2018-11-02T11:55:05.686Z,18.17
2018-11-02T11:57:36.017Z,18.09
2018-11-02T12:00:05.514Z,17.95
2018-11-02T12:02:34.514Z,18.41
2018-11-02T12:05:03.674Z,18.38
2018-11-02T12:07:32.598Z,18.39
2018-11-02T12:10:01.542Z,18.36
2018-11-02T12:12:30.536Z,18.16
2018-11-02T12:14:59.536Z,18.68
2018-11-02T12:17:28.456Z,18.63
2018-11-02T12:19:57.534Z,18.59
2018-11-02T12:22:26.639Z,18.65
2018-11-02T12:24:55.574Z,18.66
2018-11-02T12:27:25.131Z,18.50
2018-11-02T12:29:56.864Z,18.23
2018-11-02T12:32:30.774Z,18.04
2018-11-02T12:35:01.719Z,17.86
2018-11-02T12:37:31.220Z,17.97
2018-11-02T12:40:00.969Z,18.12
2018-11-02T12:42:31.849Z,18.39
2018-11-02T12:45:00.832Z,18.31
2018-11-02T12:47:29.735Z,18.43
2018-11-02T12:49:58.720Z,18.56
2018-11-02T12:52:27.575Z,18.50
2018-11-02T12:54:56.563Z,18.74
2018-11-02T12:57:25.441Z,18.95
2018-11-02T12:59:56.706Z,18.91
2018-11-02T13:02:25.607Z,18.32
2018-11-02T13:04:54.557Z,17.91
2018-11-02T13:07:23.347Z,18.17
2018-11-02T13:09:52.230Z,18.23
2018-11-02T13:12:33.807Z,18.33
2018-11-02T13:15:02.919Z,18.83
2018-11-02T13:17:31.828Z,19.03
2018-11-02T13:20:00.704Z,18.74
2018-11-02T13:22:29.516Z,18.59
2018-11-02T13:24:58.387Z,18.57
2018-11-02T13:27:27.219Z,18.80
2018-11-02T13:29:57.988Z,18.30
2018-11-02T13:32:26.939Z,17.98
2018-11-02T13:34:55.789Z,17.95
2018-11-02T13:37:24.681Z,17.74
2018-11-02T13:39:53.529Z,17.92
2018-11-02T13:42:22.419Z,17.80
2018-11-02T13:44:58.133Z,18.10
2018-11-02T13:47:27.106Z,18.23
2018-11-02T13:49:56.071Z,18.44
2018-11-02T13:52:24.972Z,18.07
2018-11-02T13:54:54.047Z,18.14
2018-11-02T14:00:19.731Z,18.44
2018-11-02T14:02:48.704Z,18.06
2018-11-02T14:05:19.391Z,17.78
2018-11-02T14:07:48.338Z,17.69
2018-11-02T14:10:17.565Z,17.96
2018-11-02T14:12:46.397Z,18.00
2018-11-02T14:15:16.403Z,17.63
2018-11-02T14:17:45.761Z,17.16
2018-11-02T14:20:15.542Z,16.70
2018-11-02T14:22:44.416Z,16.45
2018-11-02T14:25:14.562Z,16.31
2018-11-02T14:27:43.580Z,16.35
2018-11-02T14:30:14.853Z,16.24
2018-11-02T14:32:43.977Z,15.94
2018-11-02T14:35:12.895Z,15.70
2018-11-02T14:37:41.870Z,15.63
2018-11-02T14:40:11.570Z,15.48
2018-11-02T14:42:41.241Z,15.38
2018-11-02T14:45:12.504Z,15.30
2018-11-02T14:47:41.428Z,15.25
2018-11-02T14:50:15.296Z,15.29
2018-11-02T14:52:48.601Z,15.20
2018-11-02T14:55:17.548Z,15.14
2018-11-02T14:57:46.501Z,15.07
2018-11-02T15:00:15.333Z,15.01
2018-11-02T15:02:44.297Z,14.89
2018-11-02T15:05:14.115Z,14.76
2018-11-02T15:07:43.766Z,14.72
2018-11-02T15:10:12.772Z,14.69
2018-11-02T15:12:42.369Z,14.66
2018-11-02T15:15:12.432Z,14.63
2018-11-02T15:17:41.444Z,14.57
2018-11-02T15:20:13.822Z,14.55
2018-11-02T15:22:43.267Z,14.53
2018-11-02T15:25:12.145Z,14.51
2018-11-02T15:27:41.019Z,14.50
2018-11-02T15:30:13.134Z,14.46
2018-11-02T15:32:42.880Z,14.38
2018-11-02T15:35:12.247Z,14.31
2018-11-02T15:37:42.003Z,14.21
2018-11-02T15:40:12.120Z,14.14
2018-11-02T15:42:41.199Z,14.10
2018-11-02T15:45:12.280Z,14.00
2018-11-02T15:47:41.201Z,13.99
2018-11-02T15:50:10.973Z,14.00
2018-11-02T15:52:47.983Z,13.96
2018-11-02T15:55:17.229Z,13.93
2018-11-02T15:57:46.560Z,13.88
2018-11-02T16:00:19.768Z,13.83
2018-11-02T16:02:50.022Z,13.73
2018-11-02T16:05:18.895Z,13.55
2018-11-02T16:07:47.870Z,13.38
2018-11-02T16:10:16.735Z,13.28
2018-11-02T16:12:45.957Z,13.18
2018-11-02T16:15:15.723Z,13.10
2018-11-02T16:17:45.354Z,13.03
2018-11-02T16:20:15.294Z,12.91
2018-11-02T16:22:44.888Z,12.91
2018-11-02T16:25:14.221Z,12.94
2018-11-02T16:27:43.366Z,12.88
2018-11-02T16:30:29.552Z,12.81
2018-11-02T16:33:00.657Z,12.63
2018-11-02T16:35:29.514Z,12.57
2018-11-02T16:37:58.324Z,12.52
2018-11-02T16:40:27.207Z,12.50
2018-11-02T16:42:56.173Z,12.20
2018-11-02T16:45:25.235Z,12.20
2018-11-02T16:47:54.097Z,12.23
2018-11-02T16:50:23.132Z,12.25
2018-11-02T16:52:52.099Z,12.24
2018-11-02T16:55:21.094Z,12.15
2018-11-02T16:57:50.059Z,12.08
2018-11-02T17:00:19.733Z,11.97
2018-11-02T17:02:49.755Z,11.73
2018-11-02T17:05:19.243Z,11.50
2018-11-02T17:07:48.210Z,11.43
2018-11-02T17:10:17.568Z,11.46
2018-11-02T17:12:46.642Z,11.49
2018-11-02T17:15:15.715Z,11.48
2018-11-02T17:17:45.092Z,11.45
2018-11-02T17:20:15.299Z,11.41
2018-11-02T17:22:44.258Z,11.36
2018-11-02T17:25:13.825Z,11.34
2018-11-02T17:27:42.890Z,11.25
2018-11-02T17:30:14.171Z,11.20
2018-11-02T17:32:43.398Z,11.07
2018-11-02T17:35:12.873Z,11.02
2018-11-02T17:37:41.913Z,11.00
2018-11-02T17:40:12.545Z,10.94
2018-11-02T17:42:41.785Z,10.88
2018-11-02T17:45:10.790Z,10.79
2018-11-02T17:47:42.431Z,10.69
2018-11-02T17:50:16.965Z,10.55
2018-11-02T17:52:46.229Z,10.45
2018-11-02T17:55:15.153Z,10.28
2018-11-02T17:57:45.902Z,10.17
2018-11-02T18:00:15.230Z,10.05
2018-11-02T18:02:44.325Z,10.03
2018-11-02T18:05:16.552Z,10.03
2018-11-02T18:07:51.095Z,10.00
2018-11-02T18:10:19.994Z,9.99
2018-11-02T18:12:49.016Z,9.94
2018-11-02T18:15:17.905Z,9.92
2018-11-02T18:17:46.742Z,9.92
2018-11-02T18:20:16.381Z,9.88
2018-11-02T18:22:45.255Z,9.80
2018-11-02T18:25:14.173Z,9.82
2018-11-02T18:27:43.973Z,9.88
2018-11-02T18:30:13.286Z,9.92
2018-11-02T18:32:42.102Z,9.96
2018-11-02T18:35:11.417Z,10.00
2018-11-02T18:37:40.399Z,10.05
2018-11-02T18:40:10.996Z,10.13
2018-11-02T18:42:39.858Z,10.23
2018-11-02T18:45:11.260Z,10.28
2018-11-02T18:47:48.385Z,10.36
2018-11-02T18:50:19.519Z,10.48
2018-11-02T18:52:49.033Z,10.57
2018-11-02T18:55:18.783Z,10.63
2018-11-02T18:57:47.910Z,10.60
2018-11-02T19:00:17.090Z,10.48
2018-11-02T19:02:46.123Z,10.29
2018-11-02T19:05:17.284Z,10.25
2018-11-02T19:07:46.626Z,10.19
2018-11-02T19:10:15.536Z,10.21
2018-11-02T19:12:45.016Z,10.27
2018-11-02T19:15:15.281Z,10.28
2018-11-02T19:17:44.165Z,10.43
2018-11-02T19:20:13.827Z,10.51
2018-11-02T19:22:43.715Z,10.56
2018-11-02T19:25:13.734Z,10.55
2018-11-02T19:27:43.218Z,10.49
2018-11-02T19:30:13.617Z,10.31
2018-11-02T19:32:42.606Z,10.23
2018-11-02T19:35:12.900Z,10.21
2018-11-02T19:37:42.115Z,10.25
2018-11-02T19:40:13.180Z,10.30
2018-11-02T19:42:42.540Z,10.33
2018-11-02T19:45:14.798Z,10.31
2018-11-02T19:47:50.196Z,10.28
2018-11-02T19:50:21.671Z,10.29
2018-11-02T19:52:51.414Z,10.25
2018-11-02T19:55:20.934Z,10.18
2018-11-02T19:57:49.861Z,10.08
2018-11-02T20:00:18.929Z,10.08
2018-11-02T20:02:47.909Z,10.13
2018-11-02T20:05:18.340Z,10.17
2018-11-02T20:07:47.398Z,10.24
2018-11-02T20:10:17.945Z,10.22
2018-11-02T20:12:47.698Z,9.98
2018-11-02T20:15:17.998Z,9.91
2018-11-02T20:17:47.124Z,9.96
2018-11-02T20:20:17.270Z,10.00
2018-11-02T20:22:46.601Z,10.02
2018-11-02T20:25:17.436Z,9.96
2018-11-02T20:27:46.752Z,9.94
2018-11-02T20:30:17.136Z,9.95
2018-11-02T20:32:46.276Z,9.92
2018-11-02T20:35:16.217Z,9.88
2018-11-02T20:37:45.171Z,9.81
2018-11-02T20:40:19.008Z,9.77
2018-11-02T20:42:48.136Z,9.70
2018-11-02T20:45:18.346Z,9.62
2018-11-02T20:47:47.282Z,9.48
2018-11-02T20:50:16.321Z,9.40
2018-11-02T20:52:45.256Z,9.31
2018-11-02T20:55:14.825Z,9.18
2018-11-02T20:57:44.024Z,9.03
2018-11-02T21:00:16.937Z,8.82
2018-11-02T21:02:46.096Z,8.79
2018-11-02T21:05:16.158Z,8.79
2018-11-02T21:07:45.856Z,8.83
2018-11-02T21:10:15.927Z,8.94
2018-11-02T21:12:44.920Z,8.95
2018-11-02T21:15:15.940Z,8.91
2018-11-02T21:17:44.828Z,8.85
2018-11-02T21:20:16.195Z,8.58
2018-11-02T21:22:49.966Z,8.48
2018-11-02T21:25:21.633Z,8.51
2018-11-02T21:27:50.756Z,8.59
2018-11-02T21:30:22.176Z,8.57
2018-11-02T21:32:51.765Z,8.56
2018-11-02T21:35:21.241Z,8.65
2018-11-02T21:37:59.056Z,8.69
2018-11-02T21:40:33.052Z,8.68
2018-11-02T21:43:02.064Z,8.67
2018-11-02T21:45:32.554Z,8.69
2018-11-02T21:48:01.642Z,8.67
2018-11-02T21:50:30.511Z,8.67
2018-11-02T21:52:59.376Z,8.76
2018-11-02T21:55:28.331Z,8.82
2018-11-02T21:57:57.206Z,8.89
2018-11-02T22:00:26.103Z,8.93
2018-11-02T22:02:56.059Z,8.84
2018-11-02T22:05:29.555Z,8.94
2018-11-02T22:07:58.761Z,9.05
2018-11-02T22:10:29.696Z,9.08
2018-11-02T22:13:02.898Z,9.07
2018-11-02T22:15:32.595Z,9.09
2018-11-02T22:18:01.678Z,9.16
2018-11-02T22:20:35.676Z,9.26
2018-11-02T22:23:06.755Z,9.22
2018-11-02T22:25:35.928Z,9.17
2018-11-02T22:28:11.646Z,9.17
2018-11-02T22:30:41.593Z,9.18
2018-11-02T22:33:10.489Z,9.23
2018-11-02T22:35:43.970Z,9.23
2018-11-02T22:38:12.743Z,9.25
2018-11-02T22:40:42.262Z,9.30
2018-11-02T22:43:19.946Z,9.25
2018-11-02T22:45:59.423Z,9.17
2018-11-02T22:48:29.236Z,9.14
2018-11-02T22:51:01.878Z,9.02
2018-11-02T22:53:33.522Z,9.06
2018-11-02T22:56:04.433Z,8.98
2018-11-02T22:58:34.264Z,9.10
2018-11-02T23:01:08.305Z,9.17
2018-11-02T23:03:37.196Z,9.15
2018-11-02T23:06:19.798Z,9.11
2018-11-02T23:08:48.743Z,9.12
2018-11-02T23:11:17.742Z,9.10
2018-11-02T23:13:46.868Z,9.12
2018-11-02T23:16:15.945Z,9.00
2018-11-02T23:18:45.264Z,8.93
2018-11-02T23:21:15.745Z,8.93
2018-11-02T23:23:44.602Z,8.91
2018-11-02T23:26:15.937Z,8.91
2018-11-02T23:28:45.170Z,8.85
2018-11-02T23:31:14.639Z,8.92
2018-11-02T23:33:43.507Z,8.94
2018-11-02T23:36:12.707Z,8.88
2018-11-02T23:38:42.166Z,8.95
2018-11-02T23:41:11.185Z,8.99
2018-11-02T23:43:40.032Z,8.95
2018-11-02T23:46:10.945Z,8.96
2018-11-02T23:48:40.080Z,9.00
2018-11-02T23:51:08.910Z,9.04
2018-11-02T23:53:37.773Z,9.06
2018-11-02T23:56:07.777Z,9.05
2018-11-02T23:58:36.710Z,9.06
